createdAt,value
2019-03-06T00:02:17.795Z,5.64
2019-03-06T00:04:49.213Z,5.65
2019-03-06T00:07:20.596Z,5.64
2019-03-06T00:09:51.923Z,5.65
2019-03-06T00:12:24.509Z,5.64
2019-03-06T00:14:55.815Z,5.64
2019-03-06T00:17:27.154Z,5.63
2019-03-06T00:19:58.462Z,5.64
2019-03-06T00:22:29.859Z,5.64
2019-03-06T00:25:01.239Z,5.64
2019-03-06T00:27:32.675Z,5.65
2019-03-06T00:30:04.491Z,5.63
2019-03-06T00:32:35.925Z,5.62
2019-03-06T00:35:11.419Z,5.64
2019-03-06T00:37:43.726Z,5.65
2019-03-06T00:40:24.298Z,5.67
2019-03-06T00:42:55.736Z,5.70
2019-03-06T00:45:27.087Z,5.71
2019-03-06T00:47:58.545Z,5.72
2019-03-06T00:50:29.872Z,5.71
2019-03-06T00:53:01.488Z,5.71
2019-03-06T00:55:32.937Z,5.71
2019-03-06T00:58:04.323Z,5.70
2019-03-06T01:00:35.603Z,5.68
2019-03-06T01:03:07.342Z,5.66
2019-03-06T01:05:38.732Z,5.65
2019-03-06T01:08:10.751Z,5.64
2019-03-06T01:10:42.219Z,5.62
2019-03-06T01:13:13.550Z,5.65
2019-03-06T01:15:44.944Z,5.64
2019-03-06T01:18:16.354Z,5.64
2019-03-06T01:20:47.803Z,5.64
2019-03-06T01:23:19.214Z,5.65
2019-03-06T01:25:50.580Z,5.64
2019-03-06T01:28:21.920Z,5.67
2019-03-06T01:30:53.348Z,5.67
2019-03-06T01:33:49.761Z,5.67
2019-03-06T01:36:40.073Z,5.67
2019-03-06T01:39:43.035Z,5.70
2019-03-06T01:42:36.798Z,5.72
2019-03-06T01:45:10.324Z,5.73
2019-03-06T01:47:41.729Z,5.71
2019-03-06T01:50:14.776Z,5.69
2019-03-06T01:52:46.294Z,5.67
2019-03-06T01:55:17.557Z,5.66
2019-03-06T01:57:48.804Z,5.65
2019-03-06T02:00:20.259Z,5.65
2019-03-06T02:02:52.295Z,5.64
2019-03-06T02:05:23.621Z,5.63
2019-03-06T02:07:55.125Z,5.62
2019-03-06T02:10:26.488Z,5.63
2019-03-06T02:12:57.805Z,5.62
2019-03-06T02:15:29.184Z,5.60
2019-03-06T02:18:00.495Z,5.61
2019-03-06T02:20:31.911Z,5.61
2019-03-06T02:23:03.325Z,5.61
2019-03-06T02:25:34.666Z,5.61
2019-03-06T02:28:06.001Z,5.62
2019-03-06T02:30:37.206Z,5.61
2019-03-06T02:33:08.657Z,5.61
2019-03-06T02:35:40.160Z,5.62
2019-03-06T02:38:11.427Z,5.64
2019-03-06T02:40:42.695Z,5.65
2019-03-06T02:43:14.075Z,5.67
2019-03-06T02:45:45.400Z,5.69
2019-03-06T02:48:16.729Z,5.70
2019-03-06T02:50:48.024Z,5.72
2019-03-06T02:53:19.618Z,5.72
2019-03-06T02:55:50.942Z,5.73
2019-03-06T02:58:27.331Z,5.73
2019-03-06T03:01:16.573Z,5.74
2019-03-06T03:04:08.340Z,5.74
2019-03-06T03:06:43.645Z,5.74
2019-03-06T03:09:17.500Z,5.73
2019-03-06T03:11:48.829Z,5.72
2019-03-06T03:14:20.143Z,5.72
2019-03-06T03:16:51.464Z,5.72
2019-03-06T03:19:22.766Z,5.71
2019-03-06T03:21:55.426Z,5.70
2019-03-06T03:24:26.689Z,5.69
2019-03-06T03:26:57.985Z,5.67
2019-03-06T03:29:29.245Z,5.65
2019-03-06T03:32:00.583Z,5.62
2019-03-06T03:34:32.583Z,5.62
2019-03-06T03:37:04.037Z,5.61
2019-03-06T03:39:35.424Z,5.60
2019-03-06T03:42:06.716Z,5.61
2019-03-06T03:44:39.037Z,5.61
2019-03-06T03:47:10.345Z,5.59
2019-03-06T03:49:41.652Z,5.58
2019-03-06T03:52:12.985Z,5.59
2019-03-06T03:54:44.259Z,5.59
2019-03-06T03:57:16.102Z,5.58
2019-03-06T03:59:47.524Z,5.58
2019-03-06T04:02:18.824Z,5.59
2019-03-06T04:04:50.137Z,5.58
2019-03-06T04:07:21.732Z,5.58
2019-03-06T04:09:53.038Z,5.60
2019-03-06T04:12:24.419Z,5.59
2019-03-06T04:14:55.674Z,5.59
2019-03-06T04:17:26.891Z,5.59
2019-03-06T04:19:58.251Z,5.61
2019-03-06T04:22:29.534Z,5.62
2019-03-06T04:25:00.821Z,5.61
2019-03-06T04:27:32.251Z,5.62
2019-03-06T04:30:03.554Z,5.62
2019-03-06T04:32:35.002Z,5.62
2019-03-06T04:35:06.570Z,5.61
2019-03-06T04:37:37.898Z,5.61
2019-03-06T04:40:09.385Z,5.61
2019-03-06T04:42:40.800Z,5.62
2019-03-06T04:45:12.271Z,5.61
2019-03-06T04:47:43.551Z,5.61
2019-03-06T04:50:14.924Z,5.61
2019-03-06T04:52:46.323Z,5.61
2019-03-06T04:55:18.792Z,5.60
2019-03-06T04:57:50.129Z,5.60
2019-03-06T05:00:21.503Z,5.59
2019-03-06T05:02:53.192Z,5.58
2019-03-06T05:05:24.508Z,5.56
2019-03-06T05:07:56.808Z,5.54
2019-03-06T05:10:28.084Z,5.52
2019-03-06T05:12:59.508Z,5.50
2019-03-06T05:15:30.785Z,5.48
2019-03-06T05:18:19.355Z,5.46
2019-03-06T05:20:50.851Z,5.45
2019-03-06T05:23:22.488Z,5.41
2019-03-06T05:25:54.442Z,5.42
2019-03-06T05:28:25.809Z,5.39
2019-03-06T05:30:57.070Z,5.37
2019-03-06T05:33:28.774Z,5.36
2019-03-06T05:36:39.823Z,5.35
2019-03-06T05:39:11.974Z,5.34
2019-03-06T05:41:43.425Z,5.32
2019-03-06T05:44:14.711Z,5.32
2019-03-06T05:46:46.267Z,5.32
2019-03-06T05:49:17.554Z,5.30
2019-03-06T05:51:48.976Z,5.30
2019-03-06T05:54:20.300Z,5.29
2019-03-06T05:56:51.579Z,5.29
2019-03-06T05:59:23.072Z,5.29
2019-03-06T06:01:54.484Z,5.27
2019-03-06T06:04:25.785Z,5.26
2019-03-06T06:06:57.173Z,5.25
2019-03-06T06:09:29.328Z,5.25
2019-03-06T06:12:00.702Z,5.23
2019-03-06T06:14:31.940Z,5.24
2019-03-06T06:17:03.287Z,5.23
2019-03-06T06:19:34.516Z,5.25
2019-03-06T06:22:12.319Z,5.24
2019-03-06T06:24:43.660Z,5.23
2019-03-06T06:27:14.949Z,5.24
2019-03-06T06:29:46.707Z,5.25
2019-03-06T06:32:18.201Z,5.25
2019-03-06T06:34:50.753Z,5.26
2019-03-06T06:37:22.180Z,5.27
2019-03-06T06:39:53.570Z,5.30
2019-03-06T06:42:25.063Z,5.31
2019-03-06T06:44:56.550Z,5.35
2019-03-06T06:47:27.932Z,5.38
2019-03-06T06:49:59.347Z,5.43
2019-03-06T06:53:06.419Z,5.47
2019-03-06T06:56:22.978Z,5.51
2019-03-06T06:59:05.221Z,5.54
2019-03-06T07:02:21.476Z,5.59
2019-03-06T07:05:22.951Z,5.62
2019-03-06T07:08:16.305Z,5.65
2019-03-06T07:11:09.844Z,5.67
2019-03-06T07:13:59.681Z,5.70
2019-03-06T07:17:05.312Z,5.74
2019-03-06T07:19:40.833Z,5.77
2019-03-06T07:22:17.420Z,5.82
2019-03-06T07:25:13.527Z,5.86
2019-03-06T07:28:10.134Z,5.90
2019-03-06T07:31:03.413Z,5.94
2019-03-06T07:34:06.695Z,5.99
2019-03-06T07:37:05.970Z,6.03
2019-03-06T07:39:53.365Z,6.07
2019-03-06T07:42:42.508Z,6.11
2019-03-06T07:45:53.137Z,6.15
2019-03-06T07:48:38.205Z,6.21
2019-03-06T07:51:28.445Z,6.29
2019-03-06T07:54:09.104Z,6.35
2019-03-06T07:56:47.225Z,6.43
2019-03-06T07:59:18.586Z,6.51
2019-03-06T08:01:53.744Z,6.58
2019-03-06T08:04:25.262Z,6.65
2019-03-06T08:07:01.896Z,6.71
2019-03-06T08:09:33.435Z,6.77
2019-03-06T08:12:14.828Z,6.83
2019-03-06T08:15:23.419Z,6.87
2019-03-06T08:18:13.638Z,6.93
2019-03-06T08:21:01.406Z,7.01
2019-03-06T08:24:00.792Z,7.07
2019-03-06T08:26:32.185Z,7.14
2019-03-06T08:29:03.586Z,7.21
2019-03-06T08:31:40.766Z,7.28
2019-03-06T08:34:12.167Z,7.33
2019-03-06T08:36:43.574Z,7.39
2019-03-06T08:39:22.164Z,7.43
2019-03-06T08:41:53.539Z,7.48
2019-03-06T08:44:24.834Z,7.53
2019-03-06T08:47:23.643Z,7.60
2019-03-06T08:50:14.518Z,7.67
2019-03-06T08:53:07.848Z,7.75
2019-03-06T08:56:01.087Z,7.82
2019-03-06T08:58:45.159Z,7.91
2019-03-06T09:01:59.738Z,8.00
2019-03-06T09:04:40.790Z,8.10
2019-03-06T09:07:21.430Z,8.20
2019-03-06T09:10:20.552Z,8.30
2019-03-06T09:13:23.365Z,8.40
2019-03-06T09:16:16.783Z,8.52
2019-03-06T09:19:10.048Z,8.62
2019-03-06T09:22:03.441Z,8.72
2019-03-06T09:24:50.590Z,8.81
2019-03-06T09:27:39.615Z,8.89
2019-03-06T09:30:39.974Z,8.98
2019-03-06T09:33:19.830Z,9.08
2019-03-06T09:36:19.255Z,9.18
2019-03-06T09:39:16.819Z,9.28
2019-03-06T09:42:00.966Z,9.39
2019-03-06T09:44:48.305Z,9.48
2019-03-06T09:47:36.524Z,9.57
2019-03-06T09:50:30.010Z,9.66
2019-03-06T09:53:29.390Z,9.73
2019-03-06T09:56:25.682Z,9.81
2019-03-06T09:59:15.900Z,9.90
2019-03-06T10:02:15.359Z,9.98
2019-03-06T10:05:04.407Z,10.07
2019-03-06T10:07:48.033Z,10.17
2019-03-06T10:10:45.742Z,10.25
2019-03-06T10:13:22.831Z,10.34
2019-03-06T10:15:59.125Z,10.41
2019-03-06T10:18:55.365Z,10.47
2019-03-06T10:21:26.742Z,10.51
2019-03-06T10:23:58.593Z,10.59
2019-03-06T10:26:29.912Z,10.67
2019-03-06T10:29:01.529Z,10.75
2019-03-06T10:31:32.960Z,10.85
2019-03-06T10:34:04.199Z,10.93
2019-03-06T10:36:35.720Z,11.02
2019-03-06T10:39:07.706Z,11.11
2019-03-06T10:41:40.806Z,11.20
2019-03-06T10:44:12.266Z,11.26
2019-03-06T10:46:43.668Z,11.34
2019-03-06T10:49:15.210Z,11.42
2019-03-06T10:51:46.601Z,11.49
2019-03-06T10:54:17.973Z,11.54
2019-03-06T10:56:49.247Z,11.62
2019-03-06T10:59:20.580Z,11.68
2019-03-06T11:01:51.950Z,11.76
2019-03-06T11:04:41.105Z,11.81
2019-03-06T11:07:12.678Z,11.88
2019-03-06T11:09:44.202Z,11.95
2019-03-06T11:12:15.838Z,12.02
2019-03-06T11:14:47.174Z,12.08
2019-03-06T11:17:18.499Z,12.14
2019-03-06T11:19:50.291Z,12.18
2019-03-06T11:22:21.973Z,12.23
2019-03-06T11:24:53.330Z,12.30
2019-03-06T11:27:24.911Z,12.35
2019-03-06T11:29:56.291Z,12.40
2019-03-06T11:32:27.846Z,12.48
2019-03-06T11:34:59.650Z,12.56
2019-03-06T11:37:31.437Z,12.64
2019-03-06T11:40:03.506Z,12.75
2019-03-06T11:42:34.976Z,12.83
2019-03-06T11:45:06.599Z,12.90
2019-03-06T11:47:38.122Z,12.98
2019-03-06T11:50:10.364Z,13.06
2019-03-06T11:52:41.913Z,13.13
2019-03-06T11:55:13.812Z,13.21
2019-03-06T11:57:46.127Z,13.29
2019-03-06T12:00:37.911Z,13.35
2019-03-06T12:03:09.431Z,13.41
2019-03-06T12:05:41.074Z,13.50
2019-03-06T12:08:14.368Z,13.56
2019-03-06T12:10:46.043Z,13.65
2019-03-06T12:13:17.754Z,13.72
2019-03-06T12:15:50.456Z,13.79
2019-03-06T12:18:23.102Z,13.85
2019-03-06T12:20:54.857Z,13.93
2019-03-06T12:23:26.362Z,14.01
2019-03-06T12:25:57.833Z,14.11
2019-03-06T12:28:29.205Z,14.21
2019-03-06T12:31:00.791Z,14.30
2019-03-06T12:33:32.404Z,14.39
2019-03-06T12:36:05.622Z,14.48
2019-03-06T12:38:37.101Z,14.57
2019-03-06T12:41:08.667Z,14.65
2019-03-06T12:43:40.047Z,14.74
2019-03-06T12:46:23.576Z,14.85
2019-03-06T12:49:11.884Z,14.97
2019-03-06T12:51:43.264Z,15.07
2019-03-06T12:54:14.808Z,15.10
2019-03-06T12:56:46.846Z,15.14
2019-03-06T12:59:18.266Z,15.19
2019-03-06T13:01:49.709Z,15.23
2019-03-06T13:04:20.963Z,15.27
2019-03-06T13:06:53.428Z,15.31
2019-03-06T13:09:25.655Z,15.35
2019-03-06T13:11:56.997Z,15.39
2019-03-06T13:14:30.426Z,15.43
2019-03-06T13:17:01.570Z,15.48
2019-03-06T13:19:33.030Z,15.56
2019-03-06T13:22:11.058Z,15.65
2019-03-06T13:24:37.606Z,15.79
2019-03-06T13:27:09.020Z,15.91
2019-03-06T13:29:40.382Z,16.14
2019-03-06T13:32:12.369Z,16.45
2019-03-06T13:34:57.189Z,16.77
2019-03-06T13:37:28.395Z,17.09
2019-03-06T13:39:59.718Z,17.42
2019-03-06T13:42:31.213Z,17.67
2019-03-06T13:45:02.534Z,17.90
2019-03-06T13:47:34.792Z,18.06
2019-03-06T13:50:06.641Z,18.20
2019-03-06T13:52:37.965Z,18.31
2019-03-06T13:55:09.592Z,18.35
2019-03-06T13:57:41.091Z,18.36
2019-03-06T14:00:15.322Z,18.37
2019-03-06T14:02:49.808Z,18.38
2019-03-06T14:05:21.654Z,18.34
2019-03-06T14:07:56.480Z,18.23
2019-03-06T14:10:26.031Z,18.19
2019-03-06T14:12:57.482Z,18.18
2019-03-06T14:15:28.781Z,18.19
2019-03-06T14:18:00.020Z,18.23
2019-03-06T14:20:31.299Z,18.28
2019-03-06T14:23:02.586Z,18.36
2019-03-06T14:25:34.867Z,18.38
2019-03-06T14:28:06.461Z,18.36
2019-03-06T14:30:37.800Z,18.32
2019-03-06T14:33:09.183Z,18.29
2019-03-06T14:35:40.494Z,18.19
2019-03-06T14:38:11.784Z,18.08
2019-03-06T14:40:43.677Z,17.94
2019-03-06T14:43:15.222Z,17.80
2019-03-06T14:45:46.559Z,17.60
2019-03-06T14:48:17.934Z,17.42
2019-03-06T14:50:49.384Z,17.27
2019-03-06T14:53:20.783Z,17.10
2019-03-06T14:55:52.366Z,16.93
2019-03-06T14:58:23.682Z,16.77
2019-03-06T15:00:55.385Z,16.65
2019-03-06T15:03:27.654Z,16.55
2019-03-06T15:05:58.975Z,16.44
2019-03-06T15:08:30.218Z,16.34
2019-03-06T15:11:02.611Z,16.27
2019-03-06T15:13:34.858Z,16.21
2019-03-06T15:16:06.165Z,16.17
2019-03-06T15:18:37.480Z,16.09
2019-03-06T15:21:08.823Z,16.04
2019-03-06T15:23:40.049Z,16.04
2019-03-06T15:26:11.760Z,16.04
2019-03-06T15:28:43.042Z,16.09
2019-03-06T15:31:14.355Z,16.22
2019-03-06T15:33:45.686Z,16.41
2019-03-06T15:36:16.985Z,16.66
2019-03-06T15:38:48.612Z,16.90
2019-03-06T15:41:19.960Z,17.17
2019-03-06T15:43:51.296Z,17.38
2019-03-06T15:46:22.600Z,17.51
2019-03-06T15:48:53.846Z,17.60
2019-03-06T15:51:25.363Z,17.61
2019-03-06T15:53:56.670Z,17.56
2019-03-06T15:56:28.394Z,17.47
2019-03-06T15:58:59.723Z,17.35
2019-03-06T16:01:31.025Z,17.19
2019-03-06T16:04:02.366Z,16.98
2019-03-06T16:06:33.642Z,16.81
2019-03-06T16:09:06.948Z,16.58
2019-03-06T16:11:39.517Z,16.40
2019-03-06T16:14:12.579Z,16.24
2019-03-06T16:16:43.885Z,16.08
2019-03-06T16:19:15.176Z,15.92
2019-03-06T16:21:47.512Z,15.74
2019-03-06T16:24:24.185Z,15.59
2019-03-06T16:26:55.581Z,15.46
2019-03-06T16:29:26.921Z,15.34
2019-03-06T16:31:58.172Z,15.24
2019-03-06T16:34:29.518Z,15.14
2019-03-06T16:37:00.977Z,15.05
2019-03-06T16:39:32.687Z,14.95
2019-03-06T16:42:04.297Z,14.87
2019-03-06T16:44:36.131Z,14.77
2019-03-06T16:47:07.735Z,14.68
2019-03-06T16:49:40.921Z,14.60
2019-03-06T16:52:12.847Z,14.51
2019-03-06T16:54:44.446Z,14.43
2019-03-06T16:57:15.881Z,14.39
2019-03-06T16:59:47.445Z,14.33
2019-03-06T17:02:19.048Z,14.28
2019-03-06T17:04:50.609Z,14.21
2019-03-06T17:07:22.188Z,14.13
2019-03-06T17:09:53.792Z,14.06
2019-03-06T17:12:25.565Z,13.99
2019-03-06T17:14:57.156Z,13.93
2019-03-06T17:17:29.263Z,13.88
2019-03-06T17:20:01.143Z,13.82
2019-03-06T17:22:34.121Z,13.79
2019-03-06T17:25:07.136Z,13.73
2019-03-06T17:27:38.752Z,13.70
2019-03-06T17:30:12.503Z,13.66
2019-03-06T17:33:01.360Z,13.62
2019-03-06T17:35:33.282Z,13.55
2019-03-06T17:38:05.716Z,13.50
2019-03-06T17:40:37.128Z,13.46
2019-03-06T17:43:09.961Z,13.43
2019-03-06T17:45:41.337Z,13.40
2019-03-06T17:48:12.618Z,13.37
2019-03-06T17:50:44.074Z,13.35
2019-03-06T17:53:15.404Z,13.33
2019-03-06T17:55:46.655Z,13.30
2019-03-06T17:58:17.926Z,13.28
2019-03-06T18:00:51.967Z,13.27
2019-03-06T18:03:31.911Z,13.24
2019-03-06T18:06:06.385Z,13.21
2019-03-06T18:08:38.034Z,13.18
2019-03-06T18:11:09.542Z,13.12
2019-03-06T18:13:44.337Z,13.09
2019-03-06T18:16:15.650Z,13.06
2019-03-06T18:18:46.967Z,13.04
2019-03-06T18:21:18.732Z,13.00
2019-03-06T18:23:50.193Z,12.97
2019-03-06T18:26:21.582Z,12.95
2019-03-06T18:28:54.603Z,12.92
2019-03-06T18:31:26.299Z,12.88
2019-03-06T18:33:57.720Z,12.87
2019-03-06T18:36:29.105Z,12.84
2019-03-06T18:39:00.453Z,12.83
2019-03-06T18:41:33.262Z,12.81
2019-03-06T18:44:04.550Z,12.80
2019-03-06T18:46:35.802Z,12.79
2019-03-06T18:49:10.829Z,12.77
2019-03-06T18:51:43.281Z,12.77
2019-03-06T18:54:14.572Z,12.78
2019-03-06T18:56:45.973Z,12.77
2019-03-06T18:59:18.577Z,12.77
2019-03-06T19:01:50.034Z,12.76
2019-03-06T19:04:21.374Z,12.76
2019-03-06T19:06:52.758Z,12.76
2019-03-06T19:09:24.305Z,12.76
2019-03-06T19:11:56.133Z,12.76
2019-03-06T19:14:29.436Z,12.78
2019-03-06T19:17:00.493Z,12.80
2019-03-06T19:19:31.897Z,12.80
2019-03-06T19:22:03.421Z,12.81
2019-03-06T19:24:34.741Z,12.83
2019-03-06T19:27:06.214Z,12.82
2019-03-06T19:29:37.607Z,12.83
2019-03-06T19:32:09.005Z,12.83
2019-03-06T19:34:40.381Z,12.84
2019-03-06T19:37:11.749Z,12.84
2019-03-06T19:39:44.035Z,12.83
2019-03-06T19:42:15.797Z,12.84
2019-03-06T19:44:49.528Z,12.84
2019-03-06T19:47:20.863Z,12.85
2019-03-06T19:49:52.411Z,12.85
2019-03-06T19:52:23.755Z,12.85
2019-03-06T19:54:55.100Z,12.87
2019-03-06T19:57:27.498Z,12.89
2019-03-06T20:00:00.013Z,12.91
2019-03-06T20:02:31.460Z,12.92
2019-03-06T20:05:02.914Z,12.95
2019-03-06T20:07:35.484Z,12.97
2019-03-06T20:10:06.846Z,12.98
2019-03-06T20:12:39.445Z,12.99
2019-03-06T20:15:10.825Z,13.00
2019-03-06T20:17:42.337Z,13.01
2019-03-06T20:20:13.907Z,13.02
2019-03-06T20:22:45.766Z,13.03
2019-03-06T20:25:18.721Z,13.03
2019-03-06T20:27:50.292Z,13.02
2019-03-06T20:30:22.039Z,13.03
2019-03-06T20:32:53.377Z,13.02
2019-03-06T20:35:25.239Z,13.01
2019-03-06T20:37:58.675Z,13.01
2019-03-06T20:40:31.939Z,12.99
2019-03-06T20:43:10.624Z,12.96
2019-03-06T20:45:47.332Z,12.95
2019-03-06T20:48:19.612Z,12.94
2019-03-06T20:50:51.719Z,12.90
2019-03-06T20:53:23.208Z,12.86
2019-03-06T20:55:54.582Z,12.83
2019-03-06T20:58:25.890Z,12.80
2019-03-06T21:00:57.733Z,12.76
2019-03-06T21:03:29.290Z,12.73
2019-03-06T21:06:00.638Z,12.69
2019-03-06T21:08:32.025Z,12.67
2019-03-06T21:11:06.280Z,12.64
2019-03-06T21:13:42.186Z,12.61
2019-03-06T21:16:20.408Z,12.62
2019-03-06T21:18:59.143Z,12.60
2019-03-06T21:21:33.871Z,12.58
2019-03-06T21:24:05.197Z,12.54
2019-03-06T21:26:36.427Z,12.51
2019-03-06T21:29:07.689Z,12.50
2019-03-06T21:31:39.019Z,12.48
2019-03-06T21:34:10.347Z,12.44
2019-03-06T21:36:41.661Z,12.41
2019-03-06T21:39:25.837Z,12.39
2019-03-06T21:41:57.157Z,12.38
2019-03-06T21:44:28.411Z,12.35
2019-03-06T21:46:59.725Z,12.33
2019-03-06T21:49:31.167Z,12.32
2019-03-06T21:52:02.714Z,12.27
2019-03-06T21:54:34.232Z,12.24
2019-03-06T21:57:05.588Z,12.21
2019-03-06T21:59:37.011Z,12.20
2019-03-06T22:02:08.218Z,12.20
2019-03-06T22:04:39.532Z,12.20
2019-03-06T22:07:10.899Z,12.18
2019-03-06T22:09:42.313Z,12.17
2019-03-06T22:12:13.605Z,12.18
2019-03-06T22:14:44.921Z,12.17
2019-03-06T22:17:16.301Z,12.16
2019-03-06T22:19:47.719Z,12.16
2019-03-06T22:22:19.004Z,12.17
2019-03-06T22:24:50.330Z,12.16
2019-03-06T22:27:21.570Z,12.13
2019-03-06T22:29:53.126Z,12.12
2019-03-06T22:32:24.365Z,12.11
2019-03-06T22:34:55.585Z,12.11
2019-03-06T22:37:26.841Z,12.11
2019-03-06T22:39:58.096Z,12.09
2019-03-06T22:42:29.437Z,12.09
2019-03-06T22:45:00.750Z,12.08
2019-03-06T22:47:32.085Z,12.06
2019-03-06T22:50:03.415Z,12.05
2019-03-06T22:52:34.838Z,12.04
2019-03-06T22:55:06.793Z,12.02
2019-03-06T22:57:38.011Z,12.02
2019-03-06T23:00:32.541Z,12.02
2019-03-06T23:03:06.167Z,12.00
2019-03-06T23:05:37.415Z,12.00
2019-03-06T23:08:08.696Z,11.98
2019-03-06T23:10:42.057Z,11.97
2019-03-06T23:13:13.635Z,11.97
2019-03-06T23:15:45.285Z,11.97
2019-03-06T23:18:16.631Z,11.94
2019-03-06T23:20:47.850Z,11.93
2019-03-06T23:23:19.176Z,11.93
2019-03-06T23:25:51.508Z,11.91
2019-03-06T23:28:22.812Z,11.91
2019-03-06T23:30:54.130Z,11.90
2019-03-06T23:33:27.643Z,11.89
2019-03-06T23:35:58.905Z,11.86
2019-03-06T23:38:30.226Z,11.86
2019-03-06T23:41:01.425Z,11.85
2019-03-06T23:43:32.715Z,11.81
2019-03-06T23:46:04.028Z,11.80
2019-03-06T23:48:35.249Z,11.78
2019-03-06T23:51:24.249Z,11.76
2019-03-06T23:53:56.015Z,11.75
2019-03-06T23:56:27.366Z,11.74
2019-03-06T23:58:58.716Z,11.73
